This is the latest recevied weather packets stored in our database for station/object KE8WMS. If no packets are shown the sender has not sent any weather packets the latest 10 day(s).
| Time | Temp. | Humidity | Pressure | Rain* | Wind** | Luminosity | Snow |
|---|---|---|---|---|---|---|---|
| 1787413449 | 27.22° C | 75% | 1007.3 hPa | 0 mm | - | 777 W/m² | - |
| 1787413144 | 27.78° C | 74% | 1007.6 hPa | 0 mm | - | 758 W/m² | - |
| 1787412840 | 27.78° C | 72% | 1007.5 hPa | 0 mm | - | 700 W/m² | - |
| 1787412539 | 27.22° C | 75% | 1007.4 hPa | 0 mm | - | 657 W/m² | - |
| 1787412235 | 26.67° C | 75% | 1007.3 hPa | 0 mm | - | 615 W/m² | - |
| 1787411932 | 26.67° C | 76% | 1007.6 hPa | 0 mm | - | 628 W/m² | - |
| 1787411629 | 26.11° C | 78% | 1007.6 hPa | 0 mm | - | 595 W/m² | - |
| 1787411323 | 26.67° C | 76% | 1007.6 hPa | 0 mm | - | 574 W/m² | - |
| 1787411019 | 26.11° C | 78% | 1007.6 hPa | 0 mm | - | 551 W/m² | - |
| 1787410715 | 25.56° C | 78% | 1007.7 hPa | 0 mm | - | 578 W/m² | - |
| 1787410411 | 25° C | 79% | 1007.8 hPa | 0 mm | - | 545 W/m² | - |
| 1787410105 | 25° C | 79% | 1007.7 hPa | 0 mm | - | 266 W/m² | - |
| 1787409802 | 25.56° C | 79% | 1008 hPa | 0 mm | - | 451 W/m² | - |
| 1787409497 | 25.56° C | 78% | 1008.1 hPa | 0 mm | - | 497 W/m² | - |
| 1787409193 | 25.56° C | 78% | 1008 hPa | 0 mm | - | 486 W/m² | - |
| 1787408889 | 25.56° C | 78% | 1008.1 hPa | 0 mm | - | 428 W/m² | - |
| 1787408584 | 25° C | 79% | 1008.2 hPa | 0 mm | - | 410 W/m² | - |
| 1787408279 | 24.44° C | 82% | 1008 hPa | 0 mm | - | 438 W/m² | - |
| 1787407975 | 24.44° C | 81% | 1008.2 hPa | 0 mm | - | 444 W/m² | - |
| 1787407670 | 23.89° C | 83% | 1008.3 hPa | 0 mm | - | 425 W/m² | - |
| 1787407365 | 23.89° C | 83% | 1008.5 hPa | 0 mm | - | 435 W/m² | - |
| 1787407061 | 23.33° C | 87% | 1008.5 hPa | 0 mm | - | 209 W/m² | - |
| 1787406757 | 22.78° C | 85% | 1008.6 hPa | 0 mm | - | 116 W/m² | - |
| 1787406452 | 22.22° C | 86% | 1008.6 hPa | 0 mm | - | 113 W/m² | - |
| 1787406148 | 22.22° C | 88% | 1008.7 hPa | 0 mm | - | 101 W/m² | - |
* Rain latest hour (hover to see other rain measurements)
** Current wind speed in m/s (hover to see current wind gust speed)